# Tabular Observed and Forecast Hydrograph Information
#
# Location: Bear Creek - McKee Road (MEEC1)
#
# File Generation Time: 09/02/2026 at 07:31 AM PDT
# Data Interval: 1 Hour
#
# Most Recent Date & Time of Maximum Observed: 08/28/2026 at 07:00 AM PDT
# Maximum Observed Stage: 5.88 Feet
# Maximum Observed Flow: 175 cfs
#
# Earliest Date & Time of Maximum Forecast: 09/02/2026 at 08:00 AM PDT
# Maximum Forecast Stage: 5.51 Feet
# Maximum Forecast Flow: 112 cfs
#
# OBSERVED
#
# Date & Time (Local) Stage (Feet) Flow (cfs) Trend Observed Status
# ---------------------------------------------------------------------------------
08/28/2026 07 AM PDT 5.88 175 Normal
08/28/2026 08 AM PDT 5.76 156 - Normal
08/28/2026 09 AM PDT 5.63 133 - Normal
08/28/2026 10 AM PDT 5.63 133 0 Normal
08/28/2026 11 AM PDT 5.65 136 + Normal
08/28/2026 12 PM PDT 5.68 141 + Normal
08/28/2026 01 PM PDT 5.69 143 + Normal
08/28/2026 02 PM PDT 5.67 140 - Normal
08/28/2026 03 PM PDT 5.68 141 + Normal
08/28/2026 04 PM PDT 5.66 138 - Normal
08/28/2026 05 PM PDT 5.61 130 - Normal
08/28/2026 06 PM PDT 5.58 124 - Normal
08/28/2026 07 PM PDT 5.56 121 - Normal
08/28/2026 08 PM PDT 5.54 117 - Normal
08/28/2026 09 PM PDT 5.44 100 - Normal
08/28/2026 10 PM PDT 5.51 112 + Normal
08/28/2026 11 PM PDT 5.41 96 - Normal
08/29/2026 12 AM PDT 5.49 108 + Normal
08/29/2026 01 AM PDT 5.45 102 - Normal
08/29/2026 02 AM PDT 5.47 105 + Normal
08/29/2026 03 AM PDT 5.52 113 + Normal
08/29/2026 04 AM PDT 5.56 121 + Normal
08/29/2026 05 AM PDT 5.56 121 0 Normal
08/29/2026 06 AM PDT 5.55 119 - Normal
08/29/2026 07 AM PDT 5.53 115 - Normal
08/29/2026 08 AM PDT 5.51 112 - Normal
08/29/2026 09 AM PDT 5.47 105 - Normal
08/29/2026 10 AM PDT 5.46 103 - Normal
08/29/2026 11 AM PDT 5.47 105 + Normal
08/29/2026 12 PM PDT 5.51 112 + Normal
08/29/2026 01 PM PDT 5.50 110 - Normal
08/29/2026 02 PM PDT 5.50 110 0 Normal
08/29/2026 03 PM PDT 5.49 108 - Normal
08/29/2026 04 PM PDT 5.48 107 - Normal
08/29/2026 05 PM PDT 5.52 113 + Normal
08/29/2026 06 PM PDT 5.55 119 + Normal
08/29/2026 07 PM PDT 5.55 119 0 Normal
08/29/2026 08 PM PDT 5.55 119 0 Normal
08/29/2026 09 PM PDT 5.55 119 0 Normal
08/29/2026 10 PM PDT 5.56 121 + Normal
08/29/2026 11 PM PDT 5.56 121 0 Normal
08/30/2026 12 AM PDT 5.55 119 - Normal
08/30/2026 01 AM PDT 5.55 119 0 Normal
08/30/2026 02 AM PDT 5.54 117 - Normal
08/30/2026 03 AM PDT 5.53 115 - Normal
08/30/2026 04 AM PDT 5.53 115 0 Normal
08/30/2026 05 AM PDT 5.53 115 0 Normal
08/30/2026 06 AM PDT 5.53 115 0 Normal
08/30/2026 07 AM PDT 5.53 115 0 Normal
08/30/2026 08 AM PDT 5.54 117 + Normal
08/30/2026 09 AM PDT 5.55 119 + Normal
08/30/2026 10 AM PDT 5.59 126 + Normal
08/30/2026 11 AM PDT 5.64 135 + Normal
08/30/2026 12 PM PDT 5.65 136 + Normal
08/30/2026 01 PM PDT 5.64 135 - Normal
08/30/2026 02 PM PDT 5.64 135 0 Normal
08/30/2026 03 PM PDT 5.63 133 - Normal
08/30/2026 04 PM PDT 5.62 131 - Normal
08/30/2026 05 PM PDT 5.58 124 - Normal
08/30/2026 06 PM PDT 5.57 122 - Normal
08/30/2026 07 PM PDT 5.57 122 0 Normal
08/30/2026 08 PM PDT 5.58 124 + Normal
08/30/2026 09 PM PDT 5.57 122 - Normal
08/30/2026 10 PM PDT 5.58 124 + Normal
08/30/2026 11 PM PDT 5.58 124 0 Normal
08/31/2026 12 AM PDT 5.58 124 0 Normal
08/31/2026 01 AM PDT 5.57 122 - Normal
08/31/2026 02 AM PDT 5.57 122 0 Normal
08/31/2026 03 AM PDT 5.57 122 0 Normal
08/31/2026 04 AM PDT 5.58 124 + Normal
08/31/2026 05 AM PDT 5.58 124 0 Normal
08/31/2026 06 AM PDT 5.58 124 0 Normal
08/31/2026 07 AM PDT 5.59 126 + Normal
08/31/2026 08 AM PDT 5.69 143 + Normal
08/31/2026 09 AM PDT 5.72 148 + Normal
08/31/2026 10 AM PDT 5.70 145 - Normal
08/31/2026 11 AM PDT 5.68 141 - Normal
08/31/2026 12 PM PDT 5.67 140 - Normal
08/31/2026 01 PM PDT 5.66 138 - Normal
08/31/2026 02 PM PDT 5.64 135 - Normal
08/31/2026 03 PM PDT 5.64 135 0 Normal
08/31/2026 04 PM PDT 5.65 136 + Normal
08/31/2026 05 PM PDT 5.65 136 0 Normal
08/31/2026 06 PM PDT 5.59 126 - Normal
08/31/2026 07 PM PDT 5.57 122 - Normal
08/31/2026 08 PM PDT 5.62 131 + Normal
08/31/2026 09 PM PDT 5.64 135 + Normal
08/31/2026 10 PM PDT 5.65 136 + Normal
08/31/2026 11 PM PDT 5.64 135 - Normal
09/01/2026 12 AM PDT 5.65 136 + Normal
09/01/2026 01 AM PDT 5.65 136 0 Normal
09/01/2026 02 AM PDT 5.65 136 0 Normal
09/01/2026 03 AM PDT 5.64 135 - Normal
09/01/2026 04 AM PDT 5.65 136 + Normal
09/01/2026 05 AM PDT 5.65 136 0 Normal
09/01/2026 06 AM PDT 5.61 130 - Normal
09/01/2026 07 AM PDT 5.55 119 - Normal
09/01/2026 08 AM PDT 5.54 117 - Normal
09/01/2026 09 AM PDT 5.60 128 + Normal
09/01/2026 10 AM PDT 5.63 133 + Normal
09/01/2026 11 AM PDT 5.62 131 - Normal
09/01/2026 12 PM PDT 5.61 130 - Normal
09/01/2026 01 PM PDT 5.60 128 - Normal
09/01/2026 02 PM PDT 5.61 130 + Normal
09/01/2026 03 PM PDT 5.61 130 0 Normal
09/01/2026 04 PM PDT 5.61 130 0 Normal
09/01/2026 05 PM PDT 5.60 128 - Normal
09/01/2026 06 PM PDT 5.49 108 - Normal
09/01/2026 07 PM PDT 5.46 103 - Normal
09/01/2026 08 PM PDT 5.56 121 + Normal
09/01/2026 09 PM PDT 5.58 124 + Normal
09/01/2026 10 PM PDT 5.58 124 0 Normal
09/01/2026 11 PM PDT 5.58 124 0 Normal
09/02/2026 12 AM PDT 5.58 124 0 Normal
09/02/2026 01 AM PDT 5.58 124 0 Normal
09/02/2026 02 AM PDT 5.57 122 - Normal
09/02/2026 03 AM PDT 5.52 113 - Normal
09/02/2026 04 AM PDT 5.51 112 - Normal
09/02/2026 05 AM PDT 5.51 112 0 Normal
09/02/2026 06 AM PDT 5.51 112 0 Normal
09/02/2026 07 AM PDT 5.51 112 0 Normal
#
# FORECAST
#
# Date & Time (Local) Stage (Feet) Flow (cfs) Trend Forecast Status
# ---------------------------------------------------------------------------------
09/02/2026 08 AM PDT 5.51 112 Normal
09/02/2026 09 AM PDT 5.51 112 0 Normal
09/02/2026 10 AM PDT 5.51 112 0 Normal
09/02/2026 11 AM PDT 5.51 112 0 Normal
09/02/2026 12 PM PDT 5.51 112 0 Normal
09/02/2026 01 PM PDT 5.51 112 0 Normal
09/02/2026 02 PM PDT 5.51 112 0 Normal
09/02/2026 03 PM PDT 5.51 112 0 Normal
09/02/2026 04 PM PDT 5.51 112 0 Normal
09/02/2026 05 PM PDT 5.51 112 0 Normal
09/02/2026 06 PM PDT 5.51 112 0 Normal
09/02/2026 07 PM PDT 5.51 112 0 Normal
09/02/2026 08 PM PDT 5.51 112 0 Normal
09/02/2026 09 PM PDT 5.51 112 0 Normal
09/02/2026 10 PM PDT 5.51 112 0 Normal
09/02/2026 11 PM PDT 5.51 112 0 Normal
09/03/2026 12 AM PDT 5.51 112 0 Normal
09/03/2026 01 AM PDT 5.51 112 0 Normal
09/03/2026 02 AM PDT 5.51 112 0 Normal
09/03/2026 03 AM PDT 5.51 112 0 Normal
09/03/2026 04 AM PDT 5.51 112 0 Normal
09/03/2026 05 AM PDT 5.51 112 0 Normal
09/03/2026 06 AM PDT 5.51 112 0 Normal
09/03/2026 07 AM PDT 5.51 112 0 Normal
09/03/2026 08 AM PDT 5.51 112 0 Normal
09/03/2026 09 AM PDT 5.51 112 0 Normal
09/03/2026 10 AM PDT 5.51 112 0 Normal
09/03/2026 11 AM PDT 5.51 112 0 Normal
09/03/2026 12 PM PDT 5.51 112 0 Normal
09/03/2026 01 PM PDT 5.51 112 0 Normal
09/03/2026 02 PM PDT 5.51 112 0 Normal
09/03/2026 03 PM PDT 5.51 112 0 Normal
09/03/2026 04 PM PDT 5.51 112 0 Normal
09/03/2026 05 PM PDT 5.51 112 0 Normal
09/03/2026 06 PM PDT 5.51 112 0 Normal
09/03/2026 07 PM PDT 5.51 112 0 Normal
09/03/2026 08 PM PDT 5.51 112 0 Normal
09/03/2026 09 PM PDT 5.51 112 0 Normal
09/03/2026 10 PM PDT 5.51 112 0 Normal
09/03/2026 11 PM PDT 5.51 112 0 Normal
09/04/2026 12 AM PDT 5.51 112 0 Normal
09/04/2026 01 AM PDT 5.51 112 0 Normal
09/04/2026 02 AM PDT 5.51 112 0 Normal
09/04/2026 03 AM PDT 5.51 112 0 Normal
09/04/2026 04 AM PDT 5.51 112 0 Normal
09/04/2026 05 AM PDT 5.51 112 0 Normal
09/04/2026 06 AM PDT 5.51 112 0 Normal
09/04/2026 07 AM PDT 5.51 112 0 Normal
09/04/2026 08 AM PDT 5.51 112 0 Normal
09/04/2026 09 AM PDT 5.51 112 0 Normal
09/04/2026 10 AM PDT 5.51 112 0 Normal
09/04/2026 11 AM PDT 5.51 112 0 Normal
09/04/2026 12 PM PDT 5.51 112 0 Normal
09/04/2026 01 PM PDT 5.51 112 0 Normal
09/04/2026 02 PM PDT 5.51 112 0 Normal
09/04/2026 03 PM PDT 5.51 112 0 Normal
09/04/2026 04 PM PDT 5.51 112 0 Normal
09/04/2026 05 PM PDT 5.51 112 0 Normal
09/04/2026 06 PM PDT 5.51 112 0 Normal
09/04/2026 07 PM PDT 5.51 112 0 Normal
09/04/2026 08 PM PDT 5.51 112 0 Normal
09/04/2026 09 PM PDT 5.51 112 0 Normal
09/04/2026 10 PM PDT 5.51 112 0 Normal
09/04/2026 11 PM PDT 5.51 112 0 Normal
09/05/2026 12 AM PDT 5.51 112 0 Normal
09/05/2026 01 AM PDT 5.50 110 - Normal
09/05/2026 02 AM PDT 5.50 110 0 Normal
09/05/2026 03 AM PDT 5.50 110 0 Normal
09/05/2026 04 AM PDT 5.50 110 0 Normal
09/05/2026 05 AM PDT 5.50 110 0 Normal
09/05/2026 06 AM PDT 5.50 110 0 Normal
09/05/2026 07 AM PDT 5.50 110 0 Normal
09/05/2026 08 AM PDT 5.50 110 0 Normal
09/05/2026 09 AM PDT 5.50 110 0 Normal
09/05/2026 10 AM PDT 5.50 110 0 Normal
09/05/2026 11 AM PDT 5.50 110 0 Normal
09/05/2026 12 PM PDT 5.50 110 0 Normal
09/05/2026 01 PM PDT 5.50 110 0 Normal
09/05/2026 02 PM PDT 5.50 110 0 Normal
09/05/2026 03 PM PDT 5.50 110 0 Normal
09/05/2026 04 PM PDT 5.50 110 0 Normal
09/05/2026 05 PM PDT 5.50 110 0 Normal
09/05/2026 06 PM PDT 5.50 110 0 Normal
09/05/2026 07 PM PDT 5.50 110 0 Normal
09/05/2026 08 PM PDT 5.50 110 0 Normal
09/05/2026 09 PM PDT 5.50 110 0 Normal
09/05/2026 10 PM PDT 5.50 110 0 Normal
09/05/2026 11 PM PDT 5.50 110 0 Normal
09/06/2026 12 AM PDT 5.50 110 0 Normal
09/06/2026 01 AM PDT 5.50 110 0 Normal
09/06/2026 02 AM PDT 5.50 110 0 Normal
09/06/2026 03 AM PDT 5.50 110 0 Normal
09/06/2026 04 AM PDT 5.50 110 0 Normal
09/06/2026 05 AM PDT 5.50 110 0 Normal
09/06/2026 06 AM PDT 5.50 110 0 Normal
09/06/2026 07 AM PDT 5.50 110 0 Normal
09/06/2026 08 AM PDT 5.50 110 0 Normal
09/06/2026 09 AM PDT 5.50 110 0 Normal
09/06/2026 10 AM PDT 5.50 110 0 Normal
09/06/2026 11 AM PDT 5.50 110 0 Normal
09/06/2026 12 PM PDT 5.50 110 0 Normal
09/06/2026 01 PM PDT 5.50 110 0 Normal
09/06/2026 02 PM PDT 5.50 110 0 Normal
09/06/2026 03 PM PDT 5.50 110 0 Normal
09/06/2026 04 PM PDT 5.50 110 0 Normal
09/06/2026 05 PM PDT 5.50 110 0 Normal
09/06/2026 06 PM PDT 5.50 110 0 Normal
09/06/2026 07 PM PDT 5.50 110 0 Normal
09/06/2026 08 PM PDT 5.50 110 0 Normal
09/06/2026 09 PM PDT 5.50 110 0 Normal
09/06/2026 10 PM PDT 5.50 110 0 Normal
09/06/2026 11 PM PDT 5.50 110 0 Normal
09/07/2026 12 AM PDT 5.50 110 0 Normal
09/07/2026 01 AM PDT 5.50 110 0 Normal
09/07/2026 02 AM PDT 5.50 110 0 Normal
09/07/2026 03 AM PDT 5.50 110 0 Normal
09/07/2026 04 AM PDT 5.50 110 0 Normal
09/07/2026 05 AM PDT 5.50 110 0 Normal
#
# NOTE 1: Stages are rounded to the nearest hundredth (.01) of a foot.
# NOTE 2: Flows are rounded to the nearest (1) cfs.
# NOTE 3: Trends are determined using hourly change in unrounded stage and flow.
# NOTE 4: Maximum Values are determined using unrounded stage and flow.
|